Time;durP1;ratioP1;P1;durP2;ratioP2;P2;SDS_P1;SDS_P2;PMS_P1;PMS_P2;Temp;Humidity;BMP_temperature;BMP_pressure;BME280_temperature;BME280_humidity;BME280_pressure;Samples;Min_cycle;Max_cycle;Signal;HPM_P1;HPM_P2
2022/02/16 00:01:18;;;;;;;;;;;;;;;;;;4993067;28;20318;-65
2022/02/16 00:03:43;;;;;;;;;;;;;;;;;;4995942;28;19921;-65
2022/02/16 00:06:08;;;;;;;;;;;;;;;;;;4990747;28;19918;-66
2022/02/16 00:08:34;;;;;;;;;;;;;;;;;;4994473;28;20012;-65
2022/02/16 00:10:59;;;;;;;;;;;;;;;;;;4995503;28;19910;-66
2022/02/16 00:13:24;;;;;;;;;;;;;;;;;;4991786;28;20817;-66
2022/02/16 00:15:49;;;;;;;;;;;;;;;;;;4992821;28;20430;-66
2022/02/16 00:18:15;;;;;;;;;;;;;;;;;;4993520;28;19918;-66
2022/02/16 00:20:40;;;;;;;;;;;;;;;;;;4998473;28;19920;-65
2022/02/16 00:23:05;;;;;;;;;;;;;;;;;;4994482;28;19980;-67
2022/02/16 00:25:30;;;;;;;;;;;;;;;;;;4991934;28;20344;-66
2022/02/16 00:27:55;;;;;;;;;;;;;;;;;;4995737;28;19925;-66
2022/02/16 00:30:21;;;;;;;;;;;;;;;;;;4995298;28;20514;-66
2022/02/16 00:32:46;;;;;;;;;;;;;;;;;;5009157;28;21107;-64
2022/02/16 00:35:11;;;;;;;;;;;;;;;;;;4999842;28;19972;-66
2022/02/16 00:37:36;;;;;;;;;;;;;;;;;;4976686;28;19918;-65
2022/02/16 00:40:02;;;;;;;;;;;;;;;;;;5009238;28;19914;-67
2022/02/16 00:42:29;;;;;;;;;;;;;;;;;;4994787;28;20309;-64
2022/02/16 00:44:54;;;;;;;;;;;;;;;;;;4992291;28;20119;-64
2022/02/16 00:47:19;;;;;;;;;;;;;;;;;;4993691;28;20326;-65
2022/02/16 00:49:45;;;;;;;;;;;;;;;;;;4998503;28;19920;-64
2022/02/16 00:52:10;;;;;;;;;;;;;;;;;;4995470;28;20404;-66
2022/02/16 00:54:37;;;;;;;;;;;;;;;;;;4992758;28;19924;-65
2022/02/16 00:57:03;;;;;;;;;;;;;;;;;;4996209;28;19929;-65
2022/02/16 00:59:29;;;;;;;;;;;;;;;;;;4993652;28;19914;-66
2022/02/16 01:01:56;;;;;;;;;;;;;;;;;;4967531;28;20048;-65
2022/02/16 01:04:23;;;;;;;;;;;;;;;;;;4988150;28;19940;-65
2022/02/16 01:06:50;;;;;;;;;;;;;;;;;;4987076;28;19920;-66
2022/02/16 01:09:16;;;;;;;;;;;;;;;;;;4990333;28;19913;-65
2022/02/16 01:11:41;;;;;;;;;;;;;;;;;;4990311;28;19918;-65
2022/02/16 01:14:06;;;;;;;;;;;;;;;;;;4987552;28;20274;-66
2022/02/16 01:16:36;;;;;;;;;;;;;;;;;;4995490;28;20425;-65
2022/02/16 01:19:10;;;;;;;;;;;;;;;;;;4993720;28;19920;-65
2022/02/16 01:21:35;;;;;;;;;;;;;;;;;;4993736;28;19917;-65
2022/02/16 01:24:02;;;;;;;;;;;;;;;;;;4994382;28;19918;-66
2022/02/16 01:26:27;;;;;;;;;;;;;;;;;;4990457;28;20267;-64
2022/02/16 01:28:57;;;;;;;;;;;;;;;;;;4976447;28;19922;-66
2022/02/16 01:31:23;;;;;;;;;;;;;;;;;;4996149;28;19968;-64
2022/02/16 01:33:50;;;;;;;;;;;;;;;;;;4993446;28;20020;-64
2022/02/16 01:36:15;;;;;;;;;;;;;;;;;;4998902;28;20004;-64
2022/02/16 01:38:41;;;;;;;;;;;;;;;;;;4990152;28;20008;-64
2022/02/16 01:41:15;;;;;;;;;;;;;;;;;;4997082;28;19913;-62
2022/02/16 01:43:43;;;;;;;;;;;;;;;;;;5004896;28;19914;-64
2022/02/16 01:46:08;;;;;;;;;;;;;;;;;;4993507;28;19925;-64
2022/02/16 01:48:34;;;;;;;;;;;;;;;;;;4996767;28;19913;-64
2022/02/16 01:50:59;;;;;;;;;;;;;;;;;;4992755;28;20987;-65
2022/02/16 01:53:36;;;;;;;;;;;;;;;;;;5008046;28;19913;-65
2022/02/16 01:56:01;;;;;;;;;;;;;;;;;;4986669;28;19913;-66
2022/02/16 01:58:28;;;;;;;;;;;;;;;;;;4976324;28;20230;-65
2022/02/16 02:01:11;;;;;;;;;;;;;;;;;;4997689;28;19928;-64
2022/02/16 02:03:36;;;;;;;;;;;;;;;;;;4975239;28;19922;-65
2022/02/16 02:06:10;;;;;;;;;;;;;;;;;;4998347;28;20268;-66
2022/02/16 02:08:35;;;;;;;;;;;;;;;;;;5001864;28;19960;-66
2022/02/16 02:11:02;;;;;;;;;;;;;;;;;;4995368;28;19924;-66
2022/02/16 02:13:27;;;;;;;;;;;;;;;;;;4995908;28;19968;-65
2022/02/16 02:16:09;;;;;;;;;;;;;;;;;;4984429;28;19921;-66
2022/02/16 02:18:39;;;;;;;;;;;;;;;;;;4996902;28;19921;-65
2022/02/16 02:21:05;;;;;;;;;;;;;;;;;;5000458;28;19964;-66
2022/02/16 02:23:30;;;;;;;;;;;;;;;;;;4992092;28;19929;-66
2022/02/16 02:25:55;;;;;;;;;;;;;;;;;;4994545;28;19914;-66
2022/02/16 02:28:20;;;;;;;;;;;;;;;;;;4998172;28;19913;-66
2022/02/16 02:30:46;;;;;;;;;;;;;;;;;;4989734;28;19994;-66
2022/02/16 02:33:11;;;;;;;;;;;;;;;;;;5003184;28;19921;-65
2022/02/16 02:35:36;;;;;;;;;;;;;;;;;;4991888;28;19926;-66
2022/02/16 02:38:02;;;;;;;;;;;;;;;;;;4997112;28;19936;-64
2022/02/16 02:40:27;;;;;;;;;;;;;;;;;;4996217;28;20258;-64
2022/02/16 02:42:52;;;;;;;;;;;;;;;;;;5000899;28;20556;-66
2022/02/16 02:45:18;;;;;;;;;;;;;;;;;;4998537;28;19913;-65
2022/02/16 02:47:43;;;;;;;;;;;;;;;;;;4995871;28;19924;-65
2022/02/16 02:50:08;;;;;;;;;;;;;;;;;;4998975;28;19984;-63
2022/02/16 02:52:36;;;;;;;;;;;;;;;;;;4987930;28;19945;-64
2022/02/16 02:55:01;;;;;;;;;;;;;;;;;;4996656;28;19921;-66
2022/02/16 02:57:26;;;;;;;;;;;;;;;;;;4985766;28;19921;-66
2022/02/16 02:59:52;;;;;;;;;;;;;;;;;;4991634;28;19914;-65
2022/02/16 03:02:17;;;;;;;;;;;;;;;;;;4987975;28;19917;-65
2022/02/16 03:04:43;;;;;;;;;;;;;;;;;;4993818;28;19914;-66
2022/02/16 03:07:08;;;;;;;;;;;;;;;;;;4997225;28;20621;-65
2022/02/16 03:09:34;;;;;;;;;;;;;;;;;;4995618;28;19914;-66
2022/02/16 03:11:59;;;;;;;;;;;;;;;;;;4993322;28;20640;-67
2022/02/16 03:14:24;;;;;;;;;;;;;;;;;;4992561;28;19920;-66
2022/02/16 03:16:50;;;;;;;;;;;;;;;;;;4992960;28;19913;-66
2022/02/16 03:19:15;;;;;;;;;;;;;;;;;;4992937;28;19934;-66
2022/02/16 03:21:40;;;;;;;;;;;;;;;;;;4999529;28;20600;-66
2022/02/16 03:24:06;;;;;;;;;;;;;;;;;;4993039;28;19925;-67
2022/02/16 03:26:32;;;;;;;;;;;;;;;;;;4994133;28;19909;-67
2022/02/16 03:28:57;;;;;;;;;;;;;;;;;;4997889;28;19913;-66
2022/02/16 03:31:25;;;;;;;;;;;;;;;;;;4976327;28;19924;-66
2022/02/16 03:34:02;;;;;;;;;;;;;;;;;;4994018;28;20353;-65
2022/02/16 03:36:28;;;;;;;;;;;;;;;;;;4994605;28;20350;-66
2022/02/16 03:38:54;;;;;;;;;;;;;;;;;;4992207;28;19918;-66
2022/02/16 03:41:23;;;;;;;;;;;;;;;;;;4995701;28;19921;-66
2022/02/16 03:43:48;;;;;;;;;;;;;;;;;;4991027;28;19918;-63
2022/02/16 03:46:16;;;;;;;;;;;;;;;;;;4995562;28;19924;-63
2022/02/16 03:48:45;;;;;;;;;;;;;;;;;;4980259;28;19918;-63
2022/02/16 03:51:10;;;;;;;;;;;;;;;;;;4993290;28;19921;-65
2022/02/16 03:53:35;;;;;;;;;;;;;;;;;;5000424;28;19913;-65
2022/02/16 03:56:01;;;;;;;;;;;;;;;;;;4993474;28;19921;-63
2022/02/16 03:58:27;;;;;;;;;;;;;;;;;;5011176;28;19929;-63
2022/02/16 04:00:52;;;;;;;;;;;;;;;;;;4997317;28;19918;-66
2022/02/16 04:03:17;;;;;;;;;;;;;;;;;;4992896;28;19926;-64
2022/02/16 04:05:42;;;;;;;;;;;;;;;;;;4994402;28;19918;-65
2022/02/16 04:08:08;;;;;;;;;;;;;;;;;;4993710;28;19999;-66
2022/02/16 04:10:33;;;;;;;;;;;;;;;;;;4992954;28;19921;-63
2022/02/16 04:12:58;;;;;;;;;;;;;;;;;;4994309;28;19914;-66
2022/02/16 04:15:24;;;;;;;;;;;;;;;;;;4975851;28;19972;-65
2022/02/16 04:17:54;;;;;;;;;;;;;;;;;;4994363;28;19945;-65
2022/02/16 04:20:19;;;;;;;;;;;;;;;;;;4993198;28;19961;-63
2022/02/16 04:22:46;;;;;;;;;;;;;;;;;;4996253;28;19918;-66
2022/02/16 04:25:14;;;;;;;;;;;;;;;;;;4995072;28;20310;-65
2022/02/16 04:27:39;;;;;;;;;;;;;;;;;;4989782;28;20457;-66
2022/02/16 04:30:04;;;;;;;;;;;;;;;;;;4994359;28;19914;-65
2022/02/16 04:32:30;;;;;;;;;;;;;;;;;;4992421;28;19914;-65
2022/02/16 04:34:55;;;;;;;;;;;;;;;;;;4990319;28;19914;-67
2022/02/16 04:37:20;;;;;;;;;;;;;;;;;;4999502;28;19909;-66
2022/02/16 04:39:46;;;;;;;;;;;;;;;;;;4999510;28;20350;-66
2022/02/16 04:42:12;;;;;;;;;;;;;;;;;;5005416;28;19925;-64
2022/02/16 04:44:37;;;;;;;;;;;;;;;;;;4980742;28;19922;-67
2022/02/16 04:47:08;;;;;;;;;;;;;;;;;;4994157;28;20079;-68
2022/02/16 04:49:34;;;;;;;;;;;;;;;;;;4997853;28;20270;-68
2022/02/16 04:51:59;;;;;;;;;;;;;;;;;;4994712;28;19922;-67
2022/02/16 04:54:26;;;;;;;;;;;;;;;;;;5002137;28;19948;-67
2022/02/16 04:56:52;;;;;;;;;;;;;;;;;;4989773;28;20337;-68
2022/02/16 04:59:18;;;;;;;;;;;;;;;;;;4998287;28;19916;-67
2022/02/16 05:01:43;;;;;;;;;;;;;;;;;;4993940;28;19917;-67
2022/02/16 05:04:08;;;;;;;;;;;;;;;;;;5002009;28;19972;-66
2022/02/16 05:06:34;;;;;;;;;;;;;;;;;;4998242;28;19921;-66
2022/02/16 05:09:01;;;;;;;;;;;;;;;;;;4996118;28;19914;-66
2022/02/16 05:11:26;;;;;;;;;;;;;;;;;;5001842;28;19917;-65
2022/02/16 05:13:56;;;;;;;;;;;;;;;;;;4987042;28;20024;-66
2022/02/16 05:16:22;;;;;;;;;;;;;;;;;;4985974;28;20313;-66
2022/02/16 05:18:47;;;;;;;;;;;;;;;;;;4996451;28;19917;-65
2022/02/16 05:21:13;;;;;;;;;;;;;;;;;;5002018;28;19913;-65
2022/02/16 05:23:39;;;;;;;;;;;;;;;;;;4997786;28;19928;-67
2022/02/16 05:26:09;;;;;;;;;;;;;;;;;;4993706;28;19968;-66
2022/02/16 05:28:35;;;;;;;;;;;;;;;;;;4997100;28;19918;-66
2022/02/16 05:31:00;;;;;;;;;;;;;;;;;;4984839;28;19922;-66
2022/02/16 05:33:26;;;;;;;;;;;;;;;;;;4999130;28;19924;-65
2022/02/16 05:35:51;;;;;;;;;;;;;;;;;;5003752;28;19914;-65
2022/02/16 05:38:17;;;;;;;;;;;;;;;;;;4999578;28;19920;-65
2022/02/16 05:40:43;;;;;;;;;;;;;;;;;;4985516;28;19920;-65
2022/02/16 05:43:10;;;;;;;;;;;;;;;;;;4995791;28;19921;-66
2022/02/16 05:45:35;;;;;;;;;;;;;;;;;;4979766;28;19926;-66
2022/02/16 05:48:00;;;;;;;;;;;;;;;;;;4982594;28;19913;-66
2022/02/16 05:50:26;;;;;;;;;;;;;;;;;;4998186;28;19961;-65
2022/02/16 05:52:51;;;;;;;;;;;;;;;;;;4975246;28;19914;-64
2022/02/16 05:55:16;;;;;;;;;;;;;;;;;;4989983;28;19920;-66
2022/02/16 05:57:41;;;;;;;;;;;;;;;;;;4996419;28;19909;-66
2022/02/16 06:00:07;;;;;;;;;;;;;;;;;;4978482;28;19921;-67
2022/02/16 06:02:41;;;;;;;;;;;;;;;;;;4996173;28;19937;-66
2022/02/16 06:05:10;;;;;;;;;;;;;;;;;;4992423;28;19918;-66
2022/02/16 06:07:35;;;;;;;;;;;;;;;;;;4994384;28;19993;-64
2022/02/16 06:10:00;;;;;;;;;;;;;;;;;;5003742;28;19918;-66
2022/02/16 06:12:26;;;;;;;;;;;;;;;;;;5000124;28;20332;-66
2022/02/16 06:14:51;;;;;;;;;;;;;;;;;;5000256;28;19965;-66
2022/02/16 06:17:16;;;;;;;;;;;;;;;;;;4996142;28;19972;-67
2022/02/16 06:19:44;;;;;;;;;;;;;;;;;;4994630;28;19921;-65
2022/02/16 06:22:09;;;;;;;;;;;;;;;;;;5001104;28;19932;-65
2022/02/16 06:24:36;;;;;;;;;;;;;;;;;;4982877;28;19949;-66
2022/02/16 06:27:01;;;;;;;;;;;;;;;;;;5000754;28;19959;-66
2022/02/16 06:29:26;;;;;;;;;;;;;;;;;;4996751;28;19916;-65
2022/02/16 06:32:11;;;;;;;;;;;;;;;;;;4992893;28;19924;-65
2022/02/16 06:34:36;;;;;;;;;;;;;;;;;;4981386;28;19917;-66
2022/02/16 06:37:01;;;;;;;;;;;;;;;;;;4997918;28;19948;-66
2022/02/16 06:39:27;;;;;;;;;;;;;;;;;;4992285;28;20387;-66
2022/02/16 06:41:52;;;;;;;;;;;;;;;;;;4998974;28;19918;-66
2022/02/16 06:44:18;;;;;;;;;;;;;;;;;;4995861;28;20321;-65
2022/02/16 06:46:43;;;;;;;;;;;;;;;;;;4996963;28;19924;-65
2022/02/16 06:49:08;;;;;;;;;;;;;;;;;;4996488;28;20026;-61
2022/02/16 06:51:37;;;;;;;;;;;;;;;;;;4994637;28;19914;-62
2022/02/16 06:54:02;;;;;;;;;;;;;;;;;;4994535;28;19959;-67
2022/02/16 06:56:28;;;;;;;;;;;;;;;;;;4996938;28;20630;-66
2022/02/16 06:59:31;;;;;;;;;;;;;;;;;;4924973;29;21804;-66
2022/02/16 07:02:03;;;;;;;;;;;;;;;;;;4909014;29;19919;-67
2022/02/16 07:04:29;;;;;;;;;;;;;;;;;;4959251;28;19922;-67
2022/02/16 07:06:54;;;;;;;;;;;;;;;;;;4994753;28;19914;-67
2022/02/16 07:09:21;;;;;;;;;;;;;;;;;;4996905;28;20280;-68
2022/02/16 07:11:47;;;;;;;;;;;;;;;;;;4995320;28;20001;-68
2022/02/16 07:14:12;;;;;;;;;;;;;;;;;;5000882;28;20296;-67
2022/02/16 07:16:37;;;;;;;;;;;;;;;;;;4998351;28;19928;-67
2022/02/16 07:19:03;;;;;;;;;;;;;;;;;;4978927;28;20362;-67
2022/02/16 07:21:30;;;;;;;;;;;;;;;;;;4997753;28;19943;-66
2022/02/16 07:23:58;;;;;;;;;;;;;;;;;;4998306;28;19925;-67
2022/02/16 07:26:24;;;;;;;;;;;;;;;;;;4997080;28;19933;-68
2022/02/16 07:28:49;;;;;;;;;;;;;;;;;;4999065;28;19921;-67
2022/02/16 07:31:15;;;;;;;;;;;;;;;;;;4991385;28;19913;-66
2022/02/16 07:33:40;;;;;;;;;;;;;;;;;;4994216;28;19997;-66
2022/02/16 07:36:06;;;;;;;;;;;;;;;;;;4997870;28;20371;-67
2022/02/16 07:38:31;;;;;;;;;;;;;;;;;;4992563;28;19921;-67
2022/02/16 07:40:59;;;;;;;;;;;;;;;;;;4990910;28;19968;-67
2022/02/16 07:43:26;;;;;;;;;;;;;;;;;;4999806;28;19922;-67
2022/02/16 07:46:27;;;;;;;;;;;;;;;;;;4993147;28;19922;-68
2022/02/16 07:48:53;;;;;;;;;;;;;;;;;;4994187;28;19979;-66
2022/02/16 07:51:30;;;;;;;;;;;;;;;;;;4990945;28;19918;-66
2022/02/16 07:54:02;;;;;;;;;;;;;;;;;;4992704;28;19918;-66
2022/02/16 07:56:28;;;;;;;;;;;;;;;;;;4993151;28;19917;-68
2022/02/16 07:58:53;;;;;;;;;;;;;;;;;;4994410;28;19920;-66
2022/02/16 08:01:18;;;;;;;;;;;;;;;;;;4991304;28;19922;-68
2022/02/16 08:03:43;;;;;;;;;;;;;;;;;;4992435;28;19925;-67
2022/02/16 08:06:09;;;;;;;;;;;;;;;;;;4991548;28;20185;-67
2022/02/16 08:08:35;;;;;;;;;;;;;;;;;;4988731;28;19917;-66
2022/02/16 08:11:00;;;;;;;;;;;;;;;;;;4994002;28;19917;-67
2022/02/16 08:13:30;;;;;;;;;;;;;;;;;;4996164;28;20194;-66
2022/02/16 08:16:07;;;;;;;;;;;;;;;;;;4994029;28;20012;-67
2022/02/16 08:18:33;;;;;;;;;;;;;;;;;;4993233;28;20353;-69
2022/02/16 08:20:58;;;;;;;;;;;;;;;;;;4993793;28;21007;-66
2022/02/16 08:23:37;;;;;;;;;;;;;;;;;;4981845;28;20193;-66
2022/02/16 08:26:03;;;;;;;;;;;;;;;;;;4998235;28;19924;-66
2022/02/16 08:28:29;;;;;;;;;;;;;;;;;;4998493;28;20625;-67
2022/02/16 08:30:55;;;;;;;;;;;;;;;;;;4998602;28;20362;-67
2022/02/16 08:33:36;;;;;;;;;;;;;;;;;;4993122;28;19925;-65
2022/02/16 08:36:05;;;;;;;;;;;;;;;;;;5000369;28;19928;-69
2022/02/16 08:38:30;;;;;;;;;;;;;;;;;;4994865;28;19910;-65
2022/02/16 08:40:55;;;;;;;;;;;;;;;;;;5005386;28;19910;-68
2022/02/16 08:43:20;;;;;;;;;;;;;;;;;;4999009;28;19917;-69
2022/02/16 08:45:45;;;;;;;;;;;;;;;;;;5000721;28;19980;-67
2022/02/16 08:48:10;;;;;;;;;;;;;;;;;;4996767;28;19909;-66
2022/02/16 08:50:36;;;;;;;;;;;;;;;;;;4998524;28;20008;-69
2022/02/16 08:53:01;;;;;;;;;;;;;;;;;;5001787;28;19914;-68
2022/02/16 08:55:26;;;;;;;;;;;;;;;;;;4999687;28;19913;-66
2022/02/16 08:57:51;;;;;;;;;;;;;;;;;;4999106;28;19914;-67
2022/02/16 09:00:17;;;;;;;;;;;;;;;;;;4998009;28;19928;-67
2022/02/16 09:02:42;;;;;;;;;;;;;;;;;;4996124;28;20192;-70
2022/02/16 09:05:07;;;;;;;;;;;;;;;;;;4999029;28;20012;-67
2022/02/16 09:07:32;;;;;;;;;;;;;;;;;;5004343;28;19914;-70
2022/02/16 09:09:57;;;;;;;;;;;;;;;;;;4997049;28;19918;-70
2022/02/16 09:12:23;;;;;;;;;;;;;;;;;;4999822;28;19976;-70
2022/02/16 09:14:48;;;;;;;;;;;;;;;;;;4997217;28;19913;-72
2022/02/16 09:17:14;;;;;;;;;;;;;;;;;;4996527;28;20527;-71
2022/02/16 09:19:39;;;;;;;;;;;;;;;;;;5001021;28;19964;-67
2022/02/16 09:22:05;;;;;;;;;;;;;;;;;;5004840;28;20333;-71
2022/02/16 09:24:31;;;;;;;;;;;;;;;;;;5000952;28;19917;-71
2022/02/16 09:26:56;;;;;;;;;;;;;;;;;;4998274;28;19910;-69
2022/02/16 09:29:21;;;;;;;;;;;;;;;;;;4997439;28;19918;-69
2022/02/16 09:31:46;;;;;;;;;;;;;;;;;;5000484;28;20366;-69
2022/02/16 09:34:11;;;;;;;;;;;;;;;;;;5000269;28;20357;-68
2022/02/16 09:36:37;;;;;;;;;;;;;;;;;;4996412;28;19914;-71
2022/02/16 09:39:02;;;;;;;;;;;;;;;;;;4997926;28;19914;-72
2022/02/16 09:41:27;;;;;;;;;;;;;;;;;;4997439;28;19990;-73
2022/02/16 09:43:52;;;;;;;;;;;;;;;;;;4996713;28;20003;-73
2022/02/16 09:46:17;;;;;;;;;;;;;;;;;;4997111;28;20405;-68
2022/02/16 09:48:43;;;;;;;;;;;;;;;;;;4999662;28;20000;-71
2022/02/16 09:51:08;;;;;;;;;;;;;;;;;;4994893;28;20277;-70
2022/02/16 09:53:34;;;;;;;;;;;;;;;;;;4995446;28;20364;-69
2022/02/16 09:55:59;;;;;;;;;;;;;;;;;;4994309;28;20391;-69
2022/02/16 09:58:24;;;;;;;;;;;;;;;;;;4994499;28;20344;-69
2022/02/16 10:00:49;;;;;;;;;;;;;;;;;;4994816;28;20341;-68
2022/02/16 10:03:14;;;;;;;;;;;;;;;;;;4993780;28;20262;-71
2022/02/16 10:05:40;;;;;;;;;;;;;;;;;;5000820;28;20020;-70
2022/02/16 10:08:06;;;;;;;;;;;;;;;;;;4994823;28;20428;-70
2022/02/16 10:10:31;;;;;;;;;;;;;;;;;;5001949;28;19909;-71
2022/02/16 10:12:56;;;;;;;;;;;;;;;;;;4993944;28;19922;-69
2022/02/16 10:15:21;;;;;;;;;;;;;;;;;;4994635;28;19922;-70
2022/02/16 10:17:47;;;;;;;;;;;;;;;;;;4991445;28;19964;-68
2022/02/16 10:20:12;;;;;;;;;;;;;;;;;;4993734;28;20013;-68
2022/02/16 10:22:38;;;;;;;;;;;;;;;;;;4993590;28;19917;-69
2022/02/16 10:25:03;;;;;;;;;;;;;;;;;;4993788;28;20370;-68
2022/02/16 10:27:28;;;;;;;;;;;;;;;;;;4997476;28;19961;-69
2022/02/16 10:29:53;;;;;;;;;;;;;;;;;;4993410;28;19920;-69
2022/02/16 10:32:18;;;;;;;;;;;;;;;;;;4993721;28;19921;-67
2022/02/16 10:34:44;;;;;;;;;;;;;;;;;;4994390;28;19918;-72
2022/02/16 10:37:10;;;;;;;;;;;;;;;;;;4996088;28;19909;-69
2022/02/16 10:39:35;;;;;;;;;;;;;;;;;;4992890;28;19957;-71
2022/02/16 10:42:00;;;;;;;;;;;;;;;;;;4996712;28;20318;-70
2022/02/16 10:44:26;;;;;;;;;;;;;;;;;;4993872;28;20384;-69
2022/02/16 10:46:51;;;;;;;;;;;;;;;;;;4993795;28;19914;-68
2022/02/16 10:49:16;;;;;;;;;;;;;;;;;;4994491;28;19913;-71
2022/02/16 10:51:42;;;;;;;;;;;;;;;;;;4990089;28;20041;-67
2022/02/16 10:54:07;;;;;;;;;;;;;;;;;;4991873;28;19916;-71
2022/02/16 10:56:32;;;;;;;;;;;;;;;;;;4992021;28;19920;-71
2022/02/16 10:58:57;;;;;;;;;;;;;;;;;;4997265;28;19917;-71
2022/02/16 11:01:23;;;;;;;;;;;;;;;;;;4988179;28;19925;-71
2022/02/16 11:03:51;;;;;;;;;;;;;;;;;;4992038;28;19926;-73
2022/02/16 11:06:16;;;;;;;;;;;;;;;;;;4990062;28;19921;-68
2022/02/16 11:08:43;;;;;;;;;;;;;;;;;;4997661;28;19918;-70
2022/02/16 11:11:08;;;;;;;;;;;;;;;;;;4991350;28;19921;-72
2022/02/16 11:13:33;;;;;;;;;;;;;;;;;;4993208;28;19917;-72
2022/02/16 11:15:59;;;;;;;;;;;;;;;;;;4992361;28;19918;-71
2022/02/16 11:18:26;;;;;;;;;;;;;;;;;;4994122;28;19992;-71
2022/02/16 11:20:51;;;;;;;;;;;;;;;;;;4978559;28;19909;-67
2022/02/16 11:23:16;;;;;;;;;;;;;;;;;;4994215;28;19925;-70
2022/02/16 11:25:41;;;;;;;;;;;;;;;;;;4996374;28;19965;-70
2022/02/16 11:28:16;;;;;;;;;;;;;;;;;;4992327;28;19914;-70
2022/02/16 11:30:44;;;;;;;;;;;;;;;;;;4992198;28;19992;-68
2022/02/16 11:33:09;;;;;;;;;;;;;;;;;;4993439;28;20003;-69
2022/02/16 11:35:34;;;;;;;;;;;;;;;;;;4990553;28;20417;-69
2022/02/16 11:37:59;;;;;;;;;;;;;;;;;;4991394;28;19948;-71
2022/02/16 11:40:25;;;;;;;;;;;;;;;;;;4994251;28;19914;-67
2022/02/16 11:42:50;;;;;;;;;;;;;;;;;;4992449;28;20430;-68
2022/02/16 11:45:15;;;;;;;;;;;;;;;;;;4992494;28;20380;-69
2022/02/16 11:47:40;;;;;;;;;;;;;;;;;;4994414;28;19918;-67
2022/02/16 11:50:06;;;;;;;;;;;;;;;;;;4991591;28;19922;-68
2022/02/16 11:52:33;;;;;;;;;;;;;;;;;;4999566;28;20318;-68
2022/02/16 11:54:58;;;;;;;;;;;;;;;;;;4993785;28;20346;-67
2022/02/16 11:57:26;;;;;;;;;;;;;;;;;;4992092;28;20012;-67
2022/02/16 11:59:51;;;;;;;;;;;;;;;;;;4990985;28;19924;-66
2022/02/16 12:02:16;;;;;;;;;;;;;;;;;;4991644;28;19914;-67
2022/02/16 12:04:42;;;;;;;;;;;;;;;;;;4991692;28;20564;-68
2022/02/16 12:07:07;;;;;;;;;;;;;;;;;;4993911;28;19910;-66
2022/02/16 12:09:34;;;;;;;;;;;;;;;;;;4994197;28;19925;-68
2022/02/16 12:12:00;;;;;;;;;;;;;;;;;;4991301;28;19913;-67
2022/02/16 12:14:25;;;;;;;;;;;;;;;;;;4991590;28;20354;-67
2022/02/16 12:16:53;;;;;;;;;;;;;;;;;;4994359;28;19918;-68
2022/02/16 12:19:19;;;;;;;;;;;;;;;;;;4992879;28;19909;-69
2022/02/16 12:21:44;;;;;;;;;;;;;;;;;;4994227;28;20616;-69
2022/02/16 12:24:09;;;;;;;;;;;;;;;;;;4997263;28;19917;-71
2022/02/16 12:26:34;;;;;;;;;;;;;;;;;;4993939;28;20254;-66
2022/02/16 12:29:00;;;;;;;;;;;;;;;;;;4992039;28;20468;-67
2022/02/16 12:31:25;;;;;;;;;;;;;;;;;;4994330;28;20286;-68
2022/02/16 12:33:50;;;;;;;;;;;;;;;;;;4987644;28;20285;-68
2022/02/16 12:36:16;;;;;;;;;;;;;;;;;;4997564;28;19917;-67
2022/02/16 12:38:41;;;;;;;;;;;;;;;;;;4992303;28;19977;-71
2022/02/16 12:41:07;;;;;;;;;;;;;;;;;;4993533;28;19914;-72
2022/02/16 12:43:32;;;;;;;;;;;;;;;;;;4992962;28;19929;-68
2022/02/16 12:45:57;;;;;;;;;;;;;;;;;;4991593;28;19957;-72
2022/02/16 12:48:22;;;;;;;;;;;;;;;;;;4993049;28;19918;-72
2022/02/16 12:50:47;;;;;;;;;;;;;;;;;;4990633;28;19914;-71
2022/02/16 12:53:15;;;;;;;;;;;;;;;;;;4988893;28;20342;-71
2022/02/16 12:55:41;;;;;;;;;;;;;;;;;;4990942;28;19914;-71
2022/02/16 12:58:06;;;;;;;;;;;;;;;;;;4992770;28;19921;-70
2022/02/16 13:00:46;;;;;;;;;;;;;;;;;;4990413;28;19995;-70
2022/02/16 13:03:11;;;;;;;;;;;;;;;;;;4990244;28;20282;-69
2022/02/16 13:05:37;;;;;;;;;;;;;;;;;;4990280;28;19925;-70
2022/02/16 13:08:02;;;;;;;;;;;;;;;;;;4992099;28;19921;-72
2022/02/16 13:10:28;;;;;;;;;;;;;;;;;;4990957;28;19918;-69
2022/02/16 13:12:54;;;;;;;;;;;;;;;;;;4991044;28;19917;-70
2022/02/16 13:15:19;;;;;;;;;;;;;;;;;;4993604;28;20270;-72
2022/02/16 13:17:48;;;;;;;;;;;;;;;;;;4991472;28;19925;-70
2022/02/16 13:20:14;;;;;;;;;;;;;;;;;;4993484;28;19914;-70
2022/02/16 13:22:39;;;;;;;;;;;;;;;;;;4991336;28;19924;-69
2022/02/16 13:25:04;;;;;;;;;;;;;;;;;;4995426;28;20001;-68
2022/02/16 13:27:29;;;;;;;;;;;;;;;;;;4996672;28;19914;-69
2022/02/16 13:29:55;;;;;;;;;;;;;;;;;;4995191;28;19968;-69
2022/02/16 13:32:20;;;;;;;;;;;;;;;;;;4994273;28;19913;-71
2022/02/16 13:34:45;;;;;;;;;;;;;;;;;;4993755;28;19914;-68
2022/02/16 13:37:10;;;;;;;;;;;;;;;;;;4993225;28;20009;-71
2022/02/16 13:39:37;;;;;;;;;;;;;;;;;;4993429;28;19914;-71
2022/02/16 13:42:02;;;;;;;;;;;;;;;;;;4993940;28;19917;-73
2022/02/16 13:44:27;;;;;;;;;;;;;;;;;;4994161;28;19983;-71
2022/02/16 13:46:53;;;;;;;;;;;;;;;;;;4996732;28;20014;-74
2022/02/16 13:49:19;;;;;;;;;;;;;;;;;;4995432;28;20277;-70
2022/02/16 13:51:44;;;;;;;;;;;;;;;;;;4991035;28;19918;-66
2022/02/16 13:54:09;;;;;;;;;;;;;;;;;;4993981;28;20255;-68
2022/02/16 13:56:37;;;;;;;;;;;;;;;;;;4994442;28;19987;-70
2022/02/16 13:59:02;;;;;;;;;;;;;;;;;;4995721;28;20356;-69
2022/02/16 14:01:27;;;;;;;;;;;;;;;;;;5000968;28;19921;-71
2022/02/16 14:03:52;;;;;;;;;;;;;;;;;;4992846;28;19921;-70
2022/02/16 14:06:18;;;;;;;;;;;;;;;;;;4993195;28;19913;-67
2022/02/16 14:08:43;;;;;;;;;;;;;;;;;;5001436;28;19918;-70
2022/02/16 14:11:08;;;;;;;;;;;;;;;;;;4994378;28;19918;-69
2022/02/16 14:13:34;;;;;;;;;;;;;;;;;;4994965;28;20262;-72
2022/02/16 14:16:01;;;;;;;;;;;;;;;;;;4991717;28;20289;-71
2022/02/16 14:18:27;;;;;;;;;;;;;;;;;;4994894;28;19929;-67
2022/02/16 14:20:54;;;;;;;;;;;;;;;;;;4994008;28;19925;-67
2022/02/16 14:23:19;;;;;;;;;;;;;;;;;;4995262;28;20120;-67
2022/02/16 14:25:44;;;;;;;;;;;;;;;;;;4994550;28;20290;-68
2022/02/16 14:28:09;;;;;;;;;;;;;;;;;;4994596;28;20113;-70
2022/02/16 14:30:36;;;;;;;;;;;;;;;;;;4993611;28;19926;-70
2022/02/16 14:33:01;;;;;;;;;;;;;;;;;;4992805;28;19973;-71
2022/02/16 14:35:27;;;;;;;;;;;;;;;;;;4991906;28;19914;-68
2022/02/16 14:37:52;;;;;;;;;;;;;;;;;;4992980;28;20294;-69
2022/02/16 14:40:17;;;;;;;;;;;;;;;;;;4995259;28;20009;-69
2022/02/16 14:42:42;;;;;;;;;;;;;;;;;;4994478;28;19922;-72
2022/02/16 14:45:09;;;;;;;;;;;;;;;;;;4976394;28;20510;-70
2022/02/16 14:47:34;;;;;;;;;;;;;;;;;;4993715;28;19914;-70
2022/02/16 14:49:59;;;;;;;;;;;;;;;;;;4992236;28;20265;-69
2022/02/16 14:52:25;;;;;;;;;;;;;;;;;;4995609;28;20418;-70
2022/02/16 14:54:50;;;;;;;;;;;;;;;;;;4993952;28;19914;-71
2022/02/16 14:57:16;;;;;;;;;;;;;;;;;;4992742;28;20373;-70
2022/02/16 14:59:41;;;;;;;;;;;;;;;;;;4993332;28;19959;-68
2022/02/16 15:02:07;;;;;;;;;;;;;;;;;;4992210;28;19917;-69
2022/02/16 15:04:32;;;;;;;;;;;;;;;;;;4995206;28;19930;-68
2022/02/16 15:06:57;;;;;;;;;;;;;;;;;;4994323;28;19920;-69
2022/02/16 15:09:22;;;;;;;;;;;;;;;;;;4992961;28;20337;-70
2022/02/16 15:11:47;;;;;;;;;;;;;;;;;;4994571;28;19921;-70
2022/02/16 15:14:13;;;;;;;;;;;;;;;;;;4995031;28;20314;-70
2022/02/16 15:16:38;;;;;;;;;;;;;;;;;;4991628;28;19914;-71
2022/02/16 15:19:03;;;;;;;;;;;;;;;;;;4993869;28;19943;-70
2022/02/16 15:21:29;;;;;;;;;;;;;;;;;;4995692;28;20009;-69
2022/02/16 15:23:55;;;;;;;;;;;;;;;;;;4997479;28;20374;-69
2022/02/16 15:26:20;;;;;;;;;;;;;;;;;;4994441;28;19976;-68
2022/02/16 15:28:45;;;;;;;;;;;;;;;;;;4994812;28;20819;-71
2022/02/16 15:31:11;;;;;;;;;;;;;;;;;;4995271;28;20322;-70
2022/02/16 15:33:36;;;;;;;;;;;;;;;;;;4993176;28;19921;-69
2022/02/16 15:36:02;;;;;;;;;;;;;;;;;;4994528;28;20317;-70
2022/02/16 15:38:27;;;;;;;;;;;;;;;;;;4993058;28;20008;-71
2022/02/16 15:40:52;;;;;;;;;;;;;;;;;;4991183;28;19913;-69
2022/02/16 15:43:17;;;;;;;;;;;;;;;;;;4993581;28;19941;-71
2022/02/16 15:45:43;;;;;;;;;;;;;;;;;;4995401;28;19913;-68
2022/02/16 15:48:08;;;;;;;;;;;;;;;;;;4991647;28;19918;-70
2022/02/16 15:50:33;;;;;;;;;;;;;;;;;;4994101;28;20488;-71
2022/02/16 15:52:58;;;;;;;;;;;;;;;;;;4992182;28;20362;-69
2022/02/16 15:55:24;;;;;;;;;;;;;;;;;;4993017;28;19921;-69
2022/02/16 15:57:49;;;;;;;;;;;;;;;;;;4993979;28;20293;-71
2022/02/16 16:00:14;;;;;;;;;;;;;;;;;;4990838;28;19917;-70
2022/02/16 16:02:40;;;;;;;;;;;;;;;;;;4991440;28;20304;-69
2022/02/16 16:05:08;;;;;;;;;;;;;;;;;;4990951;28;20687;-68
2022/02/16 16:07:33;;;;;;;;;;;;;;;;;;4992875;28;19972;-69
2022/02/16 16:09:58;;;;;;;;;;;;;;;;;;4993247;28;19996;-70
2022/02/16 16:12:24;;;;;;;;;;;;;;;;;;4995443;28;20270;-69
2022/02/16 16:14:49;;;;;;;;;;;;;;;;;;4991354;28;19983;-69
2022/02/16 16:17:15;;;;;;;;;;;;;;;;;;4993531;28;19920;-69
2022/02/16 16:19:40;;;;;;;;;;;;;;;;;;4991323;28;20001;-68
2022/02/16 16:22:05;;;;;;;;;;;;;;;;;;5000675;28;19981;-69
2022/02/16 16:24:30;;;;;;;;;;;;;;;;;;4994758;28;19929;-69
2022/02/16 16:26:56;;;;;;;;;;;;;;;;;;4991758;28;20412;-68
2022/02/16 16:29:21;;;;;;;;;;;;;;;;;;4993438;28;19943;-70
2022/02/16 16:31:47;;;;;;;;;;;;;;;;;;4990534;28;19910;-69
2022/02/16 16:34:12;;;;;;;;;;;;;;;;;;4993784;28;19921;-67
2022/02/16 16:36:37;;;;;;;;;;;;;;;;;;4988690;28;19983;-68
2022/02/16 16:39:03;;;;;;;;;;;;;;;;;;4993607;28;19975;-68